createdAt,value
2018-11-05T00:00:20.969Z,99.90
2018-11-05T00:02:51.455Z,99.90
2018-11-05T00:05:21.515Z,99.90
2018-11-05T00:07:50.832Z,99.90
2018-11-05T00:10:19.841Z,99.90
2018-11-05T00:12:49.576Z,99.90
2018-11-05T00:15:18.754Z,99.90
2018-11-05T00:17:49.295Z,99.90
2018-11-05T00:20:18.554Z,99.90
2018-11-05T00:22:47.830Z,99.90
2018-11-05T00:25:17.128Z,99.90
2018-11-05T00:27:46.405Z,99.90
2018-11-05T00:30:15.859Z,99.90
2018-11-05T00:32:45.279Z,99.90
2018-11-05T00:35:14.710Z,99.90
2018-11-05T00:37:43.993Z,99.90
2018-11-05T00:40:14.977Z,99.90
2018-11-05T00:42:44.854Z,99.90
2018-11-05T00:45:14.923Z,99.90
2018-11-05T00:47:44.810Z,99.90
2018-11-05T00:50:16.053Z,99.90
2018-11-05T00:52:45.431Z,99.90
2018-11-05T00:55:14.737Z,99.90
2018-11-05T00:57:44.324Z,99.90
2018-11-05T01:00:15.781Z,99.90
2018-11-05T01:02:45.091Z,99.90
2018-11-05T01:05:15.736Z,99.90
2018-11-05T01:07:45.837Z,99.90
2018-11-05T01:10:16.041Z,99.90
2018-11-05T01:12:45.634Z,99.90
2018-11-05T01:15:16.356Z,99.90
2018-11-05T01:17:45.823Z,99.90
2018-11-05T01:20:15.901Z,99.90
2018-11-05T01:22:45.218Z,99.90
2018-11-05T01:25:14.486Z,99.90
2018-11-05T01:27:44.249Z,99.90
2018-11-05T01:30:13.912Z,99.90
2018-11-05T01:32:43.193Z,99.90
2018-11-05T01:35:13.457Z,99.90
2018-11-05T01:37:42.752Z,99.90
2018-11-05T01:40:13.382Z,99.90
2018-11-05T01:42:42.869Z,99.90
2018-11-05T01:45:13.133Z,99.90
2018-11-05T01:47:42.902Z,99.90
2018-11-05T01:50:14.227Z,99.90
2018-11-05T01:52:45.289Z,99.90
2018-11-05T01:55:14.777Z,99.90
2018-11-05T01:57:44.366Z,99.90
2018-11-05T02:00:15.491Z,99.90
2018-11-05T02:02:45.676Z,99.90
2018-11-05T02:05:14.962Z,99.90
2018-11-05T02:07:45.320Z,99.90
2018-11-05T02:10:16.001Z,99.90
2018-11-05T02:12:45.288Z,99.90
2018-11-05T02:15:14.655Z,99.90
2018-11-05T02:17:45.145Z,99.90
2018-11-05T02:20:15.387Z,99.90
2018-11-05T02:22:44.448Z,99.90
2018-11-05T02:25:14.467Z,99.90
2018-11-05T02:27:44.248Z,99.90
2018-11-05T02:30:15.826Z,99.90
2018-11-05T02:32:45.620Z,99.90
2018-11-05T02:35:16.021Z,99.90
2018-11-05T02:37:46.209Z,99.90
2018-11-05T02:40:16.810Z,99.90
2018-11-05T02:42:46.937Z,99.90
2018-11-05T02:45:17.096Z,99.90
2018-11-05T02:47:46.634Z,99.90
2018-11-05T02:50:16.351Z,99.90
2018-11-05T02:52:46.381Z,99.90
2018-11-05T03:02:01.872Z,99.90
2018-11-05T03:04:30.859Z,99.90
2018-11-05T03:07:00.111Z,99.90
2018-11-05T03:09:29.380Z,99.90
2018-11-05T03:11:58.754Z,99.90
2018-11-05T03:14:28.012Z,99.90
2018-11-05T03:16:57.336Z,99.90
2018-11-05T03:19:26.597Z,99.90
2018-11-05T03:21:55.846Z,99.90
2018-11-05T03:24:25.135Z,99.90
2018-11-05T03:26:54.452Z,99.90
2018-11-05T03:29:23.767Z,99.90
2018-11-05T03:31:53.447Z,99.90
2018-11-05T03:34:22.724Z,99.90
2018-11-05T03:36:51.861Z,99.90
2018-11-05T03:39:21.121Z,99.90
2018-11-05T03:41:50.392Z,99.90
2018-11-05T03:44:19.694Z,99.90
2018-11-05T03:46:48.968Z,99.90
2018-11-05T03:49:18.241Z,99.90
2018-11-05T03:51:47.546Z,99.90
2018-11-05T03:54:17.121Z,99.90
2018-11-05T03:56:46.490Z,99.90
2018-11-05T03:59:15.869Z,99.90
2018-11-05T04:01:45.174Z,99.90
2018-11-05T04:04:14.628Z,99.90
2018-11-05T04:06:43.885Z,99.90
2018-11-05T04:09:13.860Z,99.90
2018-11-05T04:11:43.152Z,99.90
2018-11-05T04:14:12.167Z,99.90
2018-11-05T04:16:41.435Z,99.90
2018-11-05T04:19:11.101Z,99.90
2018-11-05T04:21:42.104Z,99.90
2018-11-05T04:24:13.122Z,99.90
2018-11-05T04:26:43.471Z,99.90
2018-11-05T04:29:12.760Z,99.90
2018-11-05T04:31:42.185Z,99.90
2018-11-05T04:34:12.502Z,99.90
2018-11-05T04:36:41.797Z,99.90
2018-11-05T04:39:15.193Z,99.90
2018-11-05T04:41:44.506Z,99.90
2018-11-05T04:44:13.756Z,99.90
2018-11-05T04:46:43.465Z,99.90
2018-11-05T04:49:13.639Z,99.90
2018-11-05T04:51:43.458Z,99.90
2018-11-05T04:54:13.600Z,99.90
2018-11-05T04:56:43.110Z,99.90
2018-11-05T04:59:12.425Z,99.90
2018-11-05T05:01:42.030Z,99.90
2018-11-05T05:04:11.302Z,99.90
2018-11-05T05:06:40.337Z,99.90
2018-11-05T05:09:11.386Z,99.90
2018-11-05T05:11:40.994Z,99.90
2018-11-05T05:14:10.280Z,99.90
2018-11-05T05:16:39.715Z,99.90
2018-11-05T05:19:09.013Z,99.90
2018-11-05T05:21:38.875Z,99.90
2018-11-05T05:24:08.153Z,99.90
2018-11-05T05:26:37.437Z,99.90
2018-11-05T05:29:07.384Z,99.90
2018-11-05T05:31:36.673Z,99.90
2018-11-05T05:34:06.466Z,99.90
2018-11-05T05:36:36.187Z,99.90
2018-11-05T05:39:08.004Z,99.90
2018-11-05T05:41:37.295Z,99.90
2018-11-05T05:44:06.584Z,99.90
2018-11-05T05:46:35.886Z,99.90
2018-11-05T05:49:05.804Z,99.90
2018-11-05T05:51:35.404Z,99.90
2018-11-05T05:54:04.852Z,99.90
2018-11-05T05:56:34.284Z,99.90
2018-11-05T05:59:03.638Z,99.90
2018-11-05T06:01:32.905Z,99.90
2018-11-05T06:04:02.927Z,99.90
2018-11-05T06:06:32.470Z,99.90
2018-11-05T06:09:01.928Z,99.90
2018-11-05T06:11:30.906Z,99.90
2018-11-05T06:14:00.194Z,99.90
2018-11-05T06:16:29.486Z,99.90
2018-11-05T06:18:58.777Z,99.90
2018-11-05T06:21:27.766Z,99.30
2018-11-05T06:23:57.062Z,98.70
2018-11-05T06:26:26.394Z,94.60
2018-11-05T06:28:55.773Z,95.50
2018-11-05T06:31:25.029Z,90.60
2018-11-05T06:33:54.336Z,86.30
2018-11-05T06:36:24.560Z,56.00
2018-11-05T06:38:53.883Z,94.80
2018-11-05T06:41:23.242Z,99.90
2018-11-05T06:43:53.087Z,98.40
2018-11-05T06:46:22.432Z,86.80
2018-11-05T06:48:52.065Z,94.60
2018-11-05T06:51:21.500Z,99.80
2018-11-05T06:53:51.233Z,99.20
2018-11-05T06:56:20.511Z,99.90
2018-11-05T06:58:49.964Z,99.90
2018-11-05T07:01:19.700Z,99.90
2018-11-05T07:03:49.160Z,99.90
2018-11-05T07:06:18.460Z,99.90
2018-11-05T07:08:47.972Z,99.90
2018-11-05T07:11:17.269Z,99.90
2018-11-05T07:13:46.746Z,99.90
2018-11-05T07:16:16.154Z,99.90
2018-11-05T07:18:46.014Z,99.90
2018-11-05T07:21:15.229Z,99.90
2018-11-05T07:23:44.492Z,99.90
2018-11-05T07:26:13.798Z,99.90
2018-11-05T07:28:43.461Z,99.90
2018-11-05T07:31:12.743Z,99.90
2018-11-05T07:33:42.188Z,99.90
2018-11-05T07:36:11.506Z,99.90
2018-11-05T07:38:40.795Z,99.90
2018-11-05T07:41:10.268Z,99.90
2018-11-05T07:43:39.796Z,99.90
2018-11-05T07:46:09.292Z,99.90
2018-11-05T07:48:38.608Z,99.90
2018-11-05T07:51:08.106Z,99.90
2018-11-05T07:53:37.484Z,99.90
2018-11-05T07:56:07.149Z,99.90
2018-11-05T07:58:37.029Z,99.90
2018-11-05T08:01:06.323Z,99.90
2018-11-05T08:03:36.509Z,99.90
2018-11-05T08:06:05.525Z,99.90
2018-11-05T08:08:35.151Z,99.90
2018-11-05T08:11:05.302Z,99.90
2018-11-05T08:13:34.597Z,99.90
2018-11-05T08:16:03.870Z,99.90
2018-11-05T08:18:34.013Z,99.90
2018-11-05T08:21:03.352Z,99.90
2018-11-05T08:23:32.767Z,99.90
2018-11-05T08:26:02.656Z,99.90
2018-11-05T08:28:32.290Z,99.90
2018-11-05T08:31:01.906Z,99.90
2018-11-05T08:33:31.215Z,99.90
2018-11-05T08:36:00.537Z,99.90
2018-11-05T08:38:29.826Z,99.90
2018-11-05T08:40:59.102Z,99.90
2018-11-05T08:43:28.373Z,99.90
2018-11-05T08:45:57.681Z,99.90
2018-11-05T08:48:27.248Z,99.90
2018-11-05T08:50:56.942Z,99.90
2018-11-05T08:53:26.370Z,99.90
2018-11-05T08:55:55.805Z,99.90
2018-11-05T08:58:25.100Z,99.90
2018-11-05T09:00:56.543Z,99.90
2018-11-05T09:03:25.974Z,99.90
2018-11-05T09:05:55.492Z,99.90
2018-11-05T09:08:24.757Z,99.90
2018-11-05T09:10:54.413Z,99.90
2018-11-05T09:13:23.926Z,99.00
2018-11-05T09:15:52.908Z,97.60
2018-11-05T09:18:22.217Z,97.20
2018-11-05T09:20:51.577Z,95.00
2018-11-05T09:23:21.408Z,93.60
2018-11-05T09:25:50.744Z,94.80
2018-11-05T09:28:20.075Z,95.60
2018-11-05T09:30:49.385Z,94.90
2018-11-05T09:33:18.694Z,93.00
2018-11-05T09:35:48.286Z,92.60
2018-11-05T09:38:17.779Z,90.00
2018-11-05T09:40:47.150Z,75.20
2018-11-05T09:43:16.770Z,78.50
2018-11-05T09:45:46.674Z,76.90
2018-11-05T09:48:15.940Z,67.50
2018-11-05T09:50:45.404Z,67.50
2018-11-05T09:53:14.865Z,63.70
2018-11-05T09:55:44.474Z,59.20
2018-11-05T09:58:13.808Z,59.10
2018-11-05T10:00:43.360Z,55.60
2018-11-05T10:03:15.706Z,45.50
2018-11-05T10:05:44.856Z,46.60
2018-11-05T10:08:14.875Z,45.30
2018-11-05T10:10:44.186Z,35.90
2018-11-05T10:13:13.820Z,51.70
2018-11-05T10:15:43.115Z,36.00
2018-11-05T10:18:12.775Z,33.10
2018-11-05T10:20:42.402Z,41.80
2018-11-05T10:23:11.679Z,29.50
2018-11-05T10:25:40.975Z,32.20
2018-11-05T10:28:10.317Z,23.00
2018-11-05T10:30:39.633Z,15.20
2018-11-05T10:33:09.219Z,9.60
2018-11-05T10:35:43.879Z,6.30
2018-11-05T10:38:13.333Z,8.40
2018-11-05T10:40:42.617Z,12.10
2018-11-05T10:43:11.908Z,8.00
2018-11-05T10:45:41.488Z,7.90
2018-11-05T10:48:10.760Z,8.00
2018-11-05T10:50:40.048Z,6.00
2018-11-05T10:53:09.706Z,2.60
2018-11-05T10:55:38.979Z,1.00
2018-11-05T10:58:08.408Z,1.00
2018-11-05T11:00:43.186Z,1.00
2018-11-05T11:03:14.925Z,1.00
2018-11-05T11:05:44.538Z,1.00
2018-11-05T11:08:13.822Z,1.00
2018-11-05T11:10:43.392Z,1.00
2018-11-05T11:13:12.687Z,1.00
2018-11-05T11:15:42.315Z,1.00
2018-11-05T11:18:11.908Z,1.00
2018-11-05T11:20:41.186Z,1.00
2018-11-05T11:23:10.500Z,1.00
2018-11-05T11:25:39.828Z,1.00
2018-11-05T11:28:09.464Z,1.00
2018-11-05T11:30:39.332Z,1.00
2018-11-05T11:33:09.217Z,1.00
2018-11-05T11:35:39.132Z,1.00
2018-11-05T11:38:08.460Z,1.00
2018-11-05T11:40:38.098Z,1.00
2018-11-05T11:43:07.741Z,1.00
2018-11-05T11:45:37.257Z,1.00
2018-11-05T11:48:07.080Z,1.00
2018-11-05T11:50:36.465Z,1.00
2018-11-05T11:53:06.142Z,1.00
2018-11-05T11:55:36.008Z,1.00
2018-11-05T11:58:06.190Z,1.00
2018-11-05T12:00:35.838Z,1.00
2018-11-05T12:03:05.445Z,1.00
2018-11-05T12:05:34.757Z,1.00
2018-11-05T12:08:04.081Z,1.00
2018-11-05T12:10:33.682Z,1.00
2018-11-05T12:13:03.232Z,1.00
2018-11-05T12:15:32.841Z,1.00
2018-11-05T12:18:02.466Z,1.00
2018-11-05T12:20:31.786Z,1.00
2018-11-05T12:23:01.989Z,1.00
2018-11-05T12:25:31.590Z,1.00
2018-11-05T12:28:00.885Z,1.00
2018-11-05T12:30:30.217Z,1.00
2018-11-05T12:32:59.525Z,1.00
2018-11-05T12:35:29.093Z,1.00
2018-11-05T12:37:58.453Z,1.00
2018-11-05T12:40:28.028Z,1.00
2018-11-05T12:42:57.594Z,1.00
2018-11-05T12:45:27.132Z,1.00
2018-11-05T12:47:56.790Z,1.00
2018-11-05T12:50:26.459Z,1.00
2018-11-05T12:52:56.013Z,1.00
2018-11-05T12:55:25.926Z,1.00
2018-11-05T12:57:55.400Z,1.00
2018-11-05T13:00:25.890Z,1.00
2018-11-05T13:02:57.517Z,1.00
2018-11-05T13:05:27.731Z,1.00
2018-11-05T13:07:57.354Z,1.00
2018-11-05T13:10:26.636Z,1.00
2018-11-05T13:12:55.956Z,1.00
2018-11-05T13:15:25.433Z,1.00
2018-11-05T13:17:54.751Z,1.00
2018-11-05T13:20:24.577Z,1.00
2018-11-05T13:22:53.837Z,1.00
2018-11-05T13:25:23.206Z,1.00
2018-11-05T13:27:52.621Z,1.00
2018-11-05T13:30:22.098Z,1.00
2018-11-05T13:32:51.727Z,1.00
2018-11-05T13:35:22.886Z,1.00
2018-11-05T13:37:53.038Z,1.00
2018-11-05T13:40:23.356Z,1.00
2018-11-05T13:42:53.223Z,1.00
2018-11-05T13:45:22.540Z,1.00
2018-11-05T13:47:53.555Z,1.00
2018-11-05T13:50:22.658Z,1.00
2018-11-05T13:52:51.778Z,1.00
2018-11-05T13:55:21.497Z,1.00
2018-11-05T13:57:51.166Z,1.00
2018-11-05T14:00:21.295Z,1.00
2018-11-05T14:02:51.093Z,1.00
2018-11-05T14:05:20.410Z,1.00
2018-11-05T14:07:49.735Z,1.00
2018-11-05T14:10:20.391Z,1.00
2018-11-05T14:12:50.043Z,1.00
2018-11-05T14:15:19.718Z,1.00
2018-11-05T14:17:49.093Z,1.00
2018-11-05T14:20:19.674Z,1.00
2018-11-05T14:22:49.413Z,1.00
2018-11-05T14:25:20.002Z,1.00
2018-11-05T14:27:51.059Z,1.00
2018-11-05T14:30:20.514Z,1.00
2018-11-05T14:32:50.911Z,1.00
2018-11-05T14:35:21.041Z,1.00
2018-11-05T14:37:51.564Z,1.00
2018-11-05T14:40:21.812Z,1.00
2018-11-05T14:42:51.660Z,1.00
2018-11-05T14:45:21.784Z,1.00
2018-11-05T14:47:51.740Z,1.00
2018-11-05T14:50:22.505Z,1.00
2018-11-05T14:52:52.018Z,1.00
2018-11-05T14:55:21.361Z,1.00
2018-11-05T14:57:51.897Z,1.00
2018-11-05T15:00:24.043Z,1.00
2018-11-05T15:02:54.012Z,1.00
2018-11-05T15:05:23.674Z,1.00
2018-11-05T15:07:53.407Z,1.00
2018-11-05T15:10:23.936Z,1.00
2018-11-05T15:12:53.375Z,1.00
2018-11-05T15:15:23.590Z,1.00
2018-11-05T15:17:53.190Z,1.00
2018-11-05T15:20:23.685Z,1.00
2018-11-05T15:22:52.968Z,1.00
2018-11-05T15:25:22.812Z,1.00
2018-11-05T15:27:52.280Z,1.00
2018-11-05T15:30:22.659Z,1.00
2018-11-05T15:32:52.326Z,1.00
2018-11-05T15:35:21.978Z,1.00
2018-11-05T15:37:51.904Z,1.00
2018-11-05T15:40:22.109Z,1.00
2018-11-05T15:42:51.430Z,1.00
2018-11-05T15:45:21.526Z,1.00
2018-11-05T15:47:51.027Z,1.00
2018-11-05T15:50:21.213Z,1.00
2018-11-05T15:52:51.835Z,1.00
2018-11-05T15:55:21.529Z,1.00
2018-11-05T15:57:50.952Z,1.00
2018-11-05T16:00:22.539Z,1.00
2018-11-05T16:02:58.449Z,1.00
2018-11-05T16:05:27.760Z,1.00
2018-11-05T16:07:57.070Z,1.00
2018-11-05T16:10:26.338Z,1.00
2018-11-05T16:12:55.624Z,1.00
2018-11-05T16:15:24.944Z,1.00
2018-11-05T16:17:54.229Z,1.00
2018-11-05T16:20:24.079Z,1.00
2018-11-05T16:22:53.572Z,1.00
2018-11-05T16:25:23.064Z,1.00
2018-11-05T16:27:52.321Z,1.00
2018-11-05T16:30:22.169Z,1.00
2018-11-05T16:32:52.050Z,1.00
2018-11-05T16:35:21.324Z,1.00
2018-11-05T16:37:50.704Z,1.00
2018-11-05T16:40:20.503Z,1.00
2018-11-05T16:42:50.879Z,1.00
2018-11-05T16:45:20.031Z,1.00
2018-11-05T16:47:50.020Z,1.00
2018-11-05T16:50:23.110Z,1.00
2018-11-05T16:52:53.717Z,1.00
2018-11-05T16:55:23.479Z,1.00
2018-11-05T16:57:52.802Z,1.00
2018-11-05T17:00:22.768Z,1.00
2018-11-05T17:02:52.372Z,1.00
2018-11-05T17:05:21.877Z,1.00
2018-11-05T17:07:51.200Z,1.00
2018-11-05T17:10:20.830Z,1.00
2018-11-05T17:12:52.717Z,1.00
2018-11-05T17:15:22.312Z,1.00
2018-11-05T17:17:52.193Z,1.00
2018-11-05T17:20:21.539Z,1.00
2018-11-05T17:22:50.845Z,1.00
2018-11-05T17:25:20.120Z,1.00
2018-11-05T17:27:49.428Z,1.00
2018-11-05T17:30:22.010Z,1.00
2018-11-05T17:32:51.663Z,1.00
2018-11-05T17:35:21.269Z,1.00
2018-11-05T17:37:50.733Z,1.00
2018-11-05T17:40:21.714Z,1.00
2018-11-05T17:42:51.352Z,1.00
2018-11-05T17:45:21.166Z,1.00
2018-11-05T17:47:50.900Z,1.00
2018-11-05T17:50:21.664Z,1.00
2018-11-05T17:52:51.557Z,1.00
2018-11-05T17:55:21.068Z,1.00
2018-11-05T17:57:50.462Z,1.00
2018-11-05T18:00:20.961Z,1.00
2018-11-05T18:02:50.489Z,1.00
2018-11-05T18:05:20.098Z,1.00
2018-11-05T18:07:49.473Z,1.00
2018-11-05T18:10:18.752Z,1.00
2018-11-05T18:12:48.393Z,1.00
2018-11-05T18:15:17.756Z,1.00
2018-11-05T18:17:47.635Z,1.00
2018-11-05T18:20:17.616Z,1.00
2018-11-05T18:22:47.230Z,1.00
2018-11-05T18:25:18.186Z,1.00
2018-11-05T18:27:47.946Z,1.00
2018-11-05T18:30:17.825Z,1.00
2018-11-05T18:32:48.008Z,1.00
2018-11-05T18:35:17.695Z,1.00
2018-11-05T18:37:48.580Z,1.00
2018-11-05T18:40:17.917Z,1.00
2018-11-05T18:42:47.511Z,1.00
2018-11-05T18:45:16.858Z,1.00
2018-11-05T18:47:46.333Z,1.00
2018-11-05T18:50:16.454Z,1.00
2018-11-05T18:52:46.187Z,1.00
2018-11-05T18:55:16.624Z,1.00
2018-11-05T18:57:46.035Z,1.00
2018-11-05T19:00:21.096Z,1.00
2018-11-05T19:02:51.322Z,1.00
2018-11-05T19:05:21.914Z,1.00
2018-11-05T19:07:52.250Z,1.00
2018-11-05T19:10:21.818Z,1.00
2018-11-05T19:12:53.065Z,1.00
2018-11-05T19:15:22.552Z,1.00
2018-11-05T19:17:52.746Z,1.00
2018-11-05T19:20:22.106Z,1.00
2018-11-05T19:22:51.855Z,1.00
2018-11-05T19:25:21.306Z,1.00
2018-11-05T19:27:50.687Z,1.00
2018-11-05T19:30:23.859Z,1.00
2018-11-05T19:32:53.267Z,1.00
2018-11-05T19:35:23.066Z,1.00
2018-11-05T19:37:52.439Z,1.00
2018-11-05T19:40:22.425Z,1.00
2018-11-05T19:42:52.047Z,1.00
2018-11-05T19:45:22.577Z,1.00
2018-11-05T19:47:51.978Z,1.00
2018-11-05T19:50:23.718Z,1.00
2018-11-05T19:52:53.702Z,1.00
2018-11-05T19:55:23.276Z,1.00
2018-11-05T19:57:54.079Z,1.00
2018-11-05T20:00:24.821Z,1.00
2018-11-05T20:02:55.099Z,1.00
2018-11-05T20:05:24.771Z,1.00
2018-11-05T20:07:55.343Z,1.00
2018-11-05T20:10:25.177Z,1.00
2018-11-05T20:12:54.687Z,1.00
2018-11-05T20:15:24.018Z,1.00
2018-11-05T20:17:54.393Z,1.00
2018-11-05T20:20:24.761Z,1.00
2018-11-05T20:22:54.407Z,1.00
2018-11-05T20:25:23.866Z,1.00
2018-11-05T20:27:53.166Z,1.00
2018-11-05T20:30:24.710Z,1.00
2018-11-05T20:32:55.242Z,1.00
2018-11-05T20:35:24.787Z,1.00
2018-11-05T20:37:54.095Z,1.00
2018-11-05T20:40:23.743Z,1.00
2018-11-05T20:42:53.531Z,1.00
2018-11-05T20:45:23.820Z,1.00
2018-11-05T20:47:54.113Z,6.40
2018-11-05T20:50:23.989Z,1.10
2018-11-05T20:52:53.764Z,1.00
2018-11-05T20:55:23.672Z,1.00
2018-11-05T20:57:53.581Z,1.00
2018-11-05T21:00:23.317Z,1.00
2018-11-05T21:02:52.638Z,1.00
2018-11-05T21:05:22.342Z,1.00
2018-11-05T21:07:51.652Z,1.00
2018-11-05T21:10:20.996Z,4.10
2018-11-05T21:12:50.548Z,9.90
2018-11-05T21:15:21.163Z,9.30
2018-11-05T21:17:51.453Z,12.60
2018-11-05T21:20:21.297Z,4.90
2018-11-05T21:22:51.427Z,6.40
2018-11-05T21:25:21.103Z,6.70
2018-11-05T21:27:50.651Z,8.10
2018-11-05T21:30:22.018Z,10.00
2018-11-05T21:32:51.359Z,5.70
2018-11-05T21:35:21.545Z,2.90
2018-11-05T21:37:50.837Z,1.00
2018-11-05T21:40:20.329Z,1.00
2018-11-05T21:42:49.975Z,1.00
2018-11-05T21:45:19.723Z,4.30
2018-11-05T21:47:48.978Z,1.00
2018-11-05T21:50:19.122Z,1.00
2018-11-05T21:52:48.671Z,1.00
2018-11-05T21:55:17.936Z,1.00
2018-11-05T21:57:48.302Z,1.00
2018-11-05T22:00:20.787Z,1.00
2018-11-05T22:02:55.569Z,1.00
2018-11-05T22:05:24.892Z,1.00
2018-11-05T22:07:54.122Z,1.00
2018-11-05T22:10:23.466Z,1.00
2018-11-05T22:12:52.729Z,1.00
2018-11-05T22:15:21.941Z,1.00
2018-11-05T22:17:51.231Z,1.00
2018-11-05T22:20:20.571Z,1.80
2018-11-05T22:22:49.824Z,1.00
2018-11-05T22:25:19.458Z,1.00
2018-11-05T22:27:48.817Z,1.00
2018-11-05T22:30:17.989Z,1.00
2018-11-05T22:32:47.200Z,1.00
2018-11-05T22:35:16.716Z,1.00
2018-11-05T22:37:45.992Z,1.00
2018-11-05T22:40:15.464Z,1.00
2018-11-05T22:42:44.880Z,1.00
2018-11-05T22:45:14.976Z,1.00
2018-11-05T22:47:44.989Z,1.00
2018-11-05T22:50:14.239Z,1.00
2018-11-05T22:52:43.923Z,1.00
2018-11-05T22:55:13.222Z,1.00
2018-11-05T22:57:42.570Z,1.00
2018-11-05T23:00:21.144Z,1.00
2018-11-05T23:03:56.995Z,1.00
2018-11-05T23:06:26.274Z,1.00
2018-11-05T23:08:55.480Z,1.00
2018-11-05T23:11:25.342Z,1.00
2018-11-05T23:13:55.091Z,1.00
2018-11-05T23:16:24.527Z,1.00
2018-11-05T23:18:53.841Z,1.00
2018-11-05T23:21:23.078Z,1.00
2018-11-05T23:23:52.307Z,1.00
2018-11-05T23:26:21.972Z,1.00
2018-11-05T23:28:51.203Z,1.00
2018-11-05T23:31:20.457Z,1.00
2018-11-05T23:33:49.693Z,1.00
2018-11-05T23:36:18.928Z,1.00
2018-11-05T23:38:48.475Z,1.00
2018-11-05T23:41:18.211Z,1.00
2018-11-05T23:43:47.429Z,1.00
2018-11-05T23:46:16.644Z,1.00
2018-11-05T23:48:45.872Z,1.00
2018-11-05T23:51:15.142Z,1.00
2018-11-05T23:53:44.344Z,1.00
2018-11-05T23:56:13.600Z,1.00
2018-11-05T23:58:42.811Z,1.00
